Latest Coastal Weather Observations for Cape Flattery

IDQ60701

Issued at 1:02 pm EST Tuesday 26 May 2020 (issued every 10 minutes, with the page automatically refreshed every 10 minutes)

About coastal observations | Map of coastal stations | Coastal observations for QLD | Marine services | Other Formats
Station Details ID: 031213 Name: CAPE FLATTERY Lat: -14.97 Lon: 145.31 Height: 18.5 m
Data from the previous 72 hours. | See also: Recent months at Cape Flattery
Date/Time
EST
Wind Sea
Height
m
Swell Vis
km
Cloud Weather Temp
°C
Press
hPa
Rain since
9am
mm
Dir  Spd
kts
Gust
kts
Height
m
Period
s
Dir
26/01:00pm SSE 14 18 - - - - - - - 25.6 1017.5 0.0
26/12:30pm SE 15 21 - - - - - - - 25.2 1017.9 0.0
26/12:00pm SSE 15 20 - - - - - - - 25.4 1018.2 0.0
26/11:30am SE 13 17 - - - - - - - 23.7 1018.7 0.0
26/11:00am SE 14 19 - - - - - - - 24.0 1018.9 0.0
26/10:30am SE 12 16 - - - - - - - 24.1 1019.1 0.0
26/10:00am SE 13 19 - - - - - - - 24.5 1019.0 0.0
26/09:30am SSE 12 16 - - - - - - - 24.3 1018.9 0.0
26/09:00am SSE 12 17 - - - - - - - 23.7 1019.0 0.0
26/08:30am SE 11 13 - - - - - - - 23.6 1018.7 0.0
26/08:00am SE 11 16 - - - - - - - 23.1 1018.4 0.0
26/07:30am SE 9 16 - - - - - - - 22.1 1018.1 0.0
26/07:00am SE 9 13 - - - - - - - 21.2 1017.8 0.0
26/06:30am SE 10 13 - - - - - - - 21.2 1017.5 0.0
26/06:00am SE 9 12 - - - - - - - 21.2 1017.3 0.0
26/05:30am SE 10 14 - - - - - - - 21.2 1017.1 0.0
26/05:00am SSE 9 12 - - - - - - - 21.2 1016.8 0.0
26/04:30am SE 9 12 - - - - - - - 21.5 1016.6 0.0
26/04:00am SSE 10 14 - - - - - - - 21.5 1016.5 0.0
26/03:30am SSE 10 13 - - - - - - - 21.2 1016.4 0.0
26/03:00am SSE 10 13 - - - - - - - 21.4 1016.4 0.0
26/02:30am SE 9 14 - - - - - - - 21.4 1016.6 0.0
26/02:00am SE 8 11 - - - - - - - 20.9 1016.7 0.0
26/01:30am SSE 9 13 - - - - - - - 20.9 1017.0 0.0
26/01:00am SSE 9 13 - - - - - - - 21.0 1017.1 0.0
26/12:30am SE 10 14 - - - - - - - 21.1 1017.2 0.0
26/12:00am SSE 10 13 - - - - - - - 21.1 1017.3 0.0
 
Date/Time
EST
Wind Sea
Height
m
Swell Vis
km
Cloud Weather Temp
°C
Press
hPa
Rain since
9am
mm
Dir  Spd
kts
Gust
kts
Height
m
Period
s
Dir
25/11:30pm SE 8 11 - - - - - - - 20.9 1017.6 0.0
25/11:00pm SSE 10 15 - - - - - - - 21.3 1017.5 0.0
25/10:30pm SE 9 11 - - - - - - - 21.1 1017.5 0.0
25/10:00pm SE 7 10 - - - - - - - 20.6 1017.8 0.0
25/09:30pm SE 7 8 - - - - - - - 20.6 1017.9 0.0
25/09:00pm SE 6 8 - - - - - - - 20.7 1017.8 0.0
25/08:30pm SE 6 9 - - - - - - - 20.9 1017.8 0.0
25/08:00pm SE 7 9 - - - - - - - 21.0 1017.3 0.0
25/07:30pm SE 7 11 - - - - - - - 21.1 1016.8 0.0
25/07:00pm SE 6 8 - - - - - - - 20.5 1016.5 0.0
25/06:30pm SE 6 9 - - - - - - - 21.1 1016.3 0.0
25/06:00pm SE 7 9 - - - - - - - 21.5 1016.1 0.0
25/05:30pm SE 9 13 - - - - - - - 22.3 1015.8 0.0
25/05:00pm SE 11 14 - - - - - - - 22.9 1015.6 0.0
25/04:30pm SSE 13 16 - - - - - - - 23.0 1015.4 0.0
25/04:00pm SSE 14 20 - - - - - - - 23.9 1015.4 0.0
25/03:30pm SSE 14 19 - - - - - - - 24.0 1015.4 0.0
25/03:00pm SSE 14 18 - - - - - - - 24.3 1015.5 0.0
25/02:30pm SSE 16 20 - - - - - - - 24.0 1015.7 0.0
25/02:00pm SSE 16 21 - - - - - - - 23.9 1015.9 0.0
25/01:30pm SSE 16 23 - - - - - - - 24.4 1016.2 0.0
25/01:00pm SSE 16 21 - - - - - - - 24.5 1016.6 0.0
25/12:30pm SSE 17 22 - - - - - - - 24.3 1016.9 0.0
25/12:00pm SSE 15 20 - - - - - - - 25.2 1017.2 0.0
25/11:30am SSE 15 19 - - - - - - - 25.0 1017.7 0.0
25/11:00am SSE 14 19 - - - - - - - 24.6 1018.1 0.0
25/10:30am SSE 16 22 - - - - - - - 24.5 1018.5 0.0
25/10:00am SSE 14 19 - - - - - - - 24.3 1018.7 0.0
25/09:30am SSE 14 20 - - - - - - - 24.2 1018.5 0.0
25/09:00am SSE 14 19 - - - - - - - 24.1 1018.2 0.0
25/08:30am SSE 12 18 - - - - - - - 23.3 1017.7 0.0
25/08:00am SSE 11 14 - - - - - - - 23.1 1017.5 0.0
25/07:30am SSE 10 14 - - - - - - - 22.0 1017.3 0.0
25/07:00am SSE 9 12 - - - - - - - 21.3 1016.8 0.0
25/06:30am SSE 11 15 - - - - - - - 21.1 1016.5 0.0
25/06:00am SE 10 14 - - - - - - - 21.1 1016.1 0.0
25/05:30am SSE 12 15 - - - - - - - 21.3 1016.0 0.0
25/05:00am SE 12 16 - - - - - - - 21.8 1015.7 0.0
25/04:30am SSE 11 14 - - - - - - - 21.8 1015.4 0.0
25/04:00am SSE 10 14 - - - - - - - 21.7 1015.6 0.0
25/03:30am SSE 11 15 - - - - - - - 21.6 1015.6 0.0
25/03:00am SSE 12 16 - - - - - - - 21.7 1015.3 0.0
25/02:30am SSE 11 16 - - - - - - - 21.4 1015.6 0.0
25/02:00am SSE 11 14 - - - - - - - 21.3 1015.6 0.0
25/01:30am SSE 11 15 - - - - - - - 21.1 1015.9 0.0
25/01:00am SSE 8 13 - - - - - - - 21.1 1016.2 0.0
25/12:30am SSE 11 14 - - - - - - - 21.5 1016.3 0.0
25/12:00am SSE 10 13 - - - - - - - 21.2 1016.3 0.0
 
Date/Time
EST
Wind Sea
Height
m
Swell Vis
km
Cloud Weather Temp
°C
Press
hPa
Rain since
9am
mm
Dir  Spd
kts
Gust
kts
Height
m
Period
s
Dir
24/11:30pm SSE 9 14 - - - - - - - 20.7 1016.4 0.0
24/11:00pm SSE 10 13 - - - - - - - 20.5 1016.6 0.0
24/10:30pm SSE 8 10 - - - - - - - 20.3 1016.6 0.0
24/10:00pm SSE 8 10 - - - - - - - 20.2 1016.6 0.0
24/09:30pm SSE 8 11 - - - - - - - 20.8 1016.5 0.0
24/09:00pm SSE 9 11 - - - - - - - 20.9 1016.4 0.0
24/08:30pm SSE 9 12 - - - - - - - 20.7 1016.2 0.0
24/08:00pm SSE 10 11 - - - - - - - 20.9 1015.9 0.0
24/07:30pm SSE 10 14 - - - - - - - 21.0 1015.6 0.0
24/07:00pm SSE 8 11 - - - - - - - 20.8 1015.3 0.0
24/06:30pm SSE 9 11 - - - - - - - 20.8 1015.1 0.0
24/06:00pm SE 9 11 - - - - - - - 20.9 1014.8 0.0
24/05:30pm SE 9 12 - - - - - - - 20.9 1014.6 0.0
24/05:00pm SSE 10 13 - - - - - - - 21.0 1014.5 0.0
24/04:30pm SSE 11 15 - - - - - - - 21.2 1014.3 0.0
24/04:00pm SSE 12 17 - - - - - - - 21.8 1014.4 0.0
24/03:30pm SSE 12 18 - - - - - - - 21.9 1014.3 0.0
24/03:00pm SSE 16 20 - - - - - - - 22.4 1014.3 0.0
24/02:30pm SSE 14 20 - - - - - - - 22.2 1014.2 0.0
24/02:00pm SSE 16 21 - - - - - - - 22.7 1014.2 0.0
24/01:30pm SSE 15 20 - - - - - - - 23.4 1014.4 0.0
24/01:00pm SSE 14 18 - - - - - - - 22.8 1014.8 0.0
24/12:30pm SSE 16 21 - - - - - - - 22.9 1015.3 0.0
24/12:00pm SSE 14 20 - - - - - - - 21.9 1015.8 0.0
24/11:30am SSE 15 23 - - - - - - - 21.9 1016.1 0.0
24/11:00am SSE 14 21 - - - - - - - 21.7 1016.3 0.0
24/10:30am SSE 15 22 - - - - - - - 21.9 1016.5 0.0
24/10:00am SSE 14 19 - - - - - - - 21.5 1016.7 0.0
24/09:30am S 7 13 - - - - - - - 20.6 1016.3 0.0
24/09:00am SSW 8 12 - - - - - - - 19.5 1016.3 1.6
24/08:30am SSW 8 11 - - - - - - - 19.3 1015.9 1.6
24/08:00am S 6 8 - - - - - - - 18.9 1014.6 1.6
24/07:30am SW 6 8 - - - - - - - 18.8 1015.3 1.4
24/07:00am SW 6 8 - - - - - - - 19.0 1014.9 1.4
24/06:30am WSW 4 6 - - - - - - - 19.2 1014.9 1.4
24/06:00am SW 5 7 - - - - - - - 19.3 1014.4 1.4
24/05:30am SW 6 8 - - - - - - - 19.5 1013.9 1.4
24/05:00am SW 6 8 - - - - - - - 19.6 1013.4 1.4
24/04:30am SW 5 8 - - - - - - - 19.9 1013.1 1.4
24/04:00am SW 4 5 - - - - - - - 20.3 1013.0 1.4
24/03:30am SSW 5 7 - - - - - - - 20.5 1012.9 1.4
24/03:00am SSW 6 7 - - - - - - - 20.6 1013.0 1.4
24/02:30am S 6 8 - - - - - - - 20.7 1013.1 1.4
24/02:00am S 9 13 - - - - - - - 20.7 1013.1 1.4
24/01:30am SW 6 8 - - - - - - - 21.1 1013.5 1.4
24/01:00am SSW 6 7 - - - - - - - 21.4 1013.7 1.4
24/12:30am S 10 13 - - - - - - - 21.7 1013.6 1.4
24/12:00am S 9 13 - - - - - - - 21.9 1013.8 1.4
 
Date/Time
EST
Wind Sea
Height
m
Swell Vis
km
Cloud Weather Temp
°C
Press
hPa
Rain since
9am
mm
Dir  Spd
kts
Gust
kts
Height
m
Period
s
Dir
23/11:30pm SSE 7 10 - - - - - - - 22.3 1013.9 1.4
23/11:00pm SSE 8 11 - - - - - - - 22.3 1013.9 1.4
23/10:30pm SE 9 13 - - - - - - - 22.4 1014.0 1.4
23/10:00pm SSE 8 12 - - - - - - - 22.5 1014.1 1.4
23/09:30pm SE 9 12 - - - - - - - 22.4 1014.1 1.4
23/09:00pm SE 9 13 - - - - - - - 22.4 1013.9 1.4
23/08:30pm SSE 10 14 - - - - - - - 22.4 1014.0 1.4
23/08:00pm SSE 11 16 - - - - - - - 22.4 1013.9 1.4
23/07:30pm SSE 12 17 - - - - - - - 22.4 1013.4 1.4
23/07:00pm SSE 11 15 - - - - - - - 22.2 1013.2 1.4
23/06:30pm SSE 12 16 - - - - - - - 22.0 1013.0 1.4
23/06:00pm S 11 16 - - - - - - - 21.9 1012.5 1.4
23/05:30pm S 14 19 - - - - - - - 21.8 1012.2 1.4
23/05:00pm S 11 17 - - - - - - - 22.0 1012.4 1.4
23/04:30pm S 11 17 - - - - - - - 22.1 1012.3 1.4
23/04:00pm S 9 12 - - - - - - - 22.2 1012.2 1.4
23/03:30pm S 12 16 - - - - - - - 22.2 1012.0 1.4
23/03:00pm SSW 11 15 - - - - - - - 22.6 1011.9 1.2
23/02:30pm SSW 11 15 - - - - - - - 22.3 1012.0 1.2
23/02:00pm SW 9 14 - - - - - - - 22.8 1012.4 1.2
23/01:30pm SSW 8 11 - - - - - - - 22.5 1012.7 1.2

Other formats

Comma delimited format used in spreadsheet applications
http://www.bom.gov.au/fwo/IDQ60701/IDQ60701.94188.axf

JavaScript Object Notation format (JSON) in row-major order
http://www.bom.gov.au/fwo/IDQ60701/IDQ60701.94188.json

Data quality

Most of these data are generated automatically and are frequently updated. Quality checks on data are not normally performed. It is possible for incorrect values to appear. Refer to information at About Latest Weather Observations and please check the disclaimer before using these data.